Terminal Aerodrome Forecast
Issued by NWS Jackson, MS

Current Version | Previous Version | Text Only | Print | Product List | Glossary On
Versions: 1 2 3 4 5 6 7 8 9 10 11 12 13 14 15 16 17 18
000
FTUS44 KJAN 202327
TAFHBG
TAF
KHBG 202327Z 2100/2124 15009KT P6SM BKN070
     FM210200 15006KT P6SM BKN025
     FM210500 15006KT 5SM BR BKN025 OVC050
     FM210700 15006KT 3SM SHRA BR BKN015 OVC050
     FM211500 13004KT P6SM SHRA BKN008 OVC025
     FM212100 32003KT P6SM -RA OVC015=

USA.gov is the U.S. government's official web portal to all federal, state and local government web resources and services.